Time;durP1;ratioP1;P1;durP2;ratioP2;P2;SDS_P1;SDS_P2;PMS_P1;PMS_P2;Temp;Humidity;BMP_temperature;BMP_pressure;BME280_temperature;BME280_humidity;BME280_pressure;Samples;Min_cycle;Max_cycle;Signal;HPM_P1;HPM_P2
2023/12/28 00:01:20;;;;;;;;;;;8.50;99.90;;;;;;5027007;28;20051;-86
2023/12/28 00:03:45;;;;;;;;;;;8.50;99.90;;;;;;5009698;28;19939;-87
2023/12/28 00:06:11;;;;;;;;;;;8.50;99.90;;;;;;5026096;28;19928;-85
2023/12/28 00:08:37;;;;;;;;;;;8.50;99.90;;;;;;5028876;28;19928;-88
2023/12/28 00:11:02;;;;;;;;;;;8.60;99.90;;;;;;5058689;28;20376;-86
2023/12/28 00:13:28;;;;;;;;;;;8.60;99.90;;;;;;5020398;28;20020;-84
2023/12/28 00:15:54;;;;;;;;;;;8.60;99.90;;;;;;5035621;28;19931;-87
2023/12/28 00:18:19;;;;;;;;;;;8.60;99.90;;;;;;5015666;28;20442;-85
2023/12/28 00:20:45;;;;;;;;;;;8.50;99.90;;;;;;5031139;28;19924;-84
2023/12/28 00:23:10;;;;;;;;;;;8.50;99.90;;;;;;5039911;28;20373;-86
2023/12/28 00:25:36;;;;;;;;;;;8.50;99.90;;;;;;5038701;28;19924;-86
2023/12/28 00:28:02;;;;;;;;;;;8.60;99.90;;;;;;5035037;28;19984;-84
2023/12/28 00:30:27;;;;;;;;;;;8.60;99.90;;;;;;5016856;28;19925;-84
2023/12/28 00:32:53;;;;;;;;;;;8.60;99.90;;;;;;5022039;28;19920;-87
2023/12/28 00:35:19;;;;;;;;;;;8.50;99.90;;;;;;5035115;28;20407;-84
2023/12/28 00:37:45;;;;;;;;;;;8.50;99.90;;;;;;5034953;28;19920;-85
2023/12/28 00:40:10;;;;;;;;;;;8.40;99.90;;;;;;5036118;28;20476;-86
2023/12/28 00:42:36;;;;;;;;;;;8.50;99.90;;;;;;5034334;28;20387;-86
2023/12/28 00:45:02;;;;;;;;;;;8.40;99.90;;;;;;5035472;28;19927;-88
2023/12/28 00:47:28;;;;;;;;;;;8.40;99.90;;;;;;5015527;28;20012;-89
2023/12/28 00:49:54;;;;;;;;;;;8.40;99.90;;;;;;5032753;28;20309;-84
2023/12/28 00:52:19;;;;;;;;;;;8.40;99.90;;;;;;5056119;28;20431;-85
2023/12/28 00:54:45;;;;;;;;;;;8.40;99.90;;;;;;5035128;28;19931;-89
2023/12/28 00:57:10;;;;;;;;;;;8.40;99.90;;;;;;5049506;28;19928;-87
2023/12/28 00:59:36;;;;;;;;;;;8.30;99.90;;;;;;5057658;28;19924;-86
2023/12/28 01:02:01;;;;;;;;;;;8.40;99.90;;;;;;5035010;28;19939;-84
2023/12/28 01:04:27;;;;;;;;;;;8.40;99.90;;;;;;5066604;28;19921;-85
2023/12/28 01:06:53;;;;;;;;;;;8.40;99.90;;;;;;5051912;28;19924;-87
2023/12/28 01:09:18;;;;;;;;;;;8.50;99.90;;;;;;5038894;28;19941;-86
2023/12/28 01:11:44;;;;;;;;;;;8.40;99.90;;;;;;5056140;28;19931;-85
2023/12/28 01:14:10;;;;;;;;;;;8.40;99.90;;;;;;5050688;28;20069;-84
2023/12/28 01:16:35;;;;;;;;;;;8.50;99.90;;;;;;5053395;28;19939;-87
2023/12/28 01:19:01;;;;;;;;;;;8.40;99.90;;;;;;5081166;28;20380;-86
2023/12/28 01:21:28;;;;;;;;;;;8.50;99.90;;;;;;5063465;28;20363;-86
2023/12/28 01:23:54;;;;;;;;;;;8.40;99.90;;;;;;5043562;28;19920;-83
2023/12/28 01:26:20;;;;;;;;;;;8.40;99.90;;;;;;5063732;28;19925;-86
2023/12/28 01:28:46;;;;;;;;;;;8.50;99.90;;;;;;5042389;28;19928;-84
2023/12/28 01:31:11;;;;;;;;;;;8.50;99.90;;;;;;5052205;28;19951;-86
2023/12/28 01:33:37;;;;;;;;;;;8.40;99.90;;;;;;5037867;28;20023;-85
2023/12/28 01:36:02;;;;;;;;;;;8.40;99.90;;;;;;5085179;28;20349;-84
2023/12/28 01:38:28;;;;;;;;;;;8.40;99.90;;;;;;5069577;28;19931;-84
2023/12/28 01:40:54;;;;;;;;;;;8.40;99.90;;;;;;5079439;28;20483;-84
2023/12/28 01:43:19;;;;;;;;;;;8.30;99.90;;;;;;5057731;28;19920;-85
2023/12/28 01:45:45;;;;;;;;;;;8.30;99.90;;;;;;5055509;28;19929;-87
2023/12/28 01:48:13;;;;;;;;;;;8.30;99.90;;;;;;5067409;28;20024;-84
2023/12/28 01:50:39;;;;;;;;;;;8.40;99.90;;;;;;5055943;28;19924;-85
2023/12/28 01:53:05;;;;;;;;;;;8.40;99.90;;;;;;5070606;28;19921;-83
2023/12/28 01:55:31;;;;;;;;;;;8.40;99.90;;;;;;5088988;28;19924;-85
2023/12/28 01:57:57;;;;;;;;;;;8.50;99.90;;;;;;5058100;28;19924;-86
2023/12/28 02:00:22;;;;;;;;;;;8.40;99.90;;;;;;5058762;28;19991;-86
2023/12/28 02:02:48;;;;;;;;;;;8.30;99.90;;;;;;5039664;28;19920;-84
2023/12/28 02:05:14;;;;;;;;;;;8.30;99.90;;;;;;5054341;28;20369;-83
2023/12/28 02:07:40;;;;;;;;;;;8.30;99.90;;;;;;5056053;28;19939;-86
2023/12/28 02:10:06;;;;;;;;;;;8.30;99.90;;;;;;5058134;28;20277;-88
2023/12/28 02:12:32;;;;;;;;;;;8.30;99.90;;;;;;5052308;28;19920;-86
2023/12/28 02:14:58;;;;;;;;;;;8.40;99.90;;;;;;5065548;28;19935;-84
2023/12/28 02:17:30;;;;;;;;;;;8.40;99.90;;;;;;5080512;28;19931;-90
2023/12/28 02:19:56;;;;;;;;;;;8.30;99.90;;;;;;5060081;28;19982;-85
2023/12/28 02:22:23;;;;;;;;;;;8.30;99.90;;;;;;5052911;28;20003;-83
2023/12/28 02:25:11;;;;;;;;;;;8.30;99.90;;;;;;5053926;28;19924;-86
2023/12/28 02:27:38;;;;;;;;;;;8.30;99.90;;;;;;5064626;28;19923;-83
2023/12/28 02:30:05;;;;;;;;;;;8.40;99.90;;;;;;5072687;28;19971;-85
2023/12/28 02:32:51;;;;;;;;;;;8.30;99.90;;;;;;5075459;28;20369;-84
2023/12/28 02:35:24;;;;;;;;;;;8.30;99.90;;;;;;5044118;28;19932;-87
2023/12/28 02:37:55;;;;;;;;;;;8.40;99.90;;;;;;5074710;28;19920;-84
2023/12/28 02:40:20;;;;;;;;;;;8.30;99.90;;;;;;5063912;28;19955;-85
2023/12/28 02:42:46;;;;;;;;;;;8.30;99.90;;;;;;5051833;28;19979;-84
2023/12/28 02:45:12;;;;;;;;;;;8.40;99.90;;;;;;5055080;28;19931;-90
2023/12/28 02:47:38;;;;;;;;;;;8.30;99.90;;;;;;5069258;28;20037;-85
2023/12/28 02:50:03;;;;;;;;;;;8.40;99.90;;;;;;5040539;28;19931;-86
2023/12/28 02:52:29;;;;;;;;;;;8.30;99.90;;;;;;5049567;28;19950;-88
2023/12/28 02:54:55;;;;;;;;;;;8.50;99.90;;;;;;5063727;28;20376;-86
2023/12/28 02:57:20;;;;;;;;;;;8.50;99.90;;;;;;5066748;28;19931;-85
2023/12/28 02:59:46;;;;;;;;;;;8.50;99.90;;;;;;5075494;28;19950;-87
2023/12/28 03:02:11;;;;;;;;;;;8.60;99.90;;;;;;5057607;28;19931;-86
2023/12/28 03:04:37;;;;;;;;;;;8.50;99.90;;;;;;5036353;28;19920;-84
2023/12/28 03:07:04;;;;;;;;;;;8.60;99.90;;;;;;5060712;28;19920;-86
2023/12/28 03:09:29;;;;;;;;;;;8.70;99.90;;;;;;5054564;28;19920;-86
2023/12/28 03:11:55;;;;;;;;;;;8.60;99.90;;;;;;5052762;28;19939;-88
2023/12/28 03:14:21;;;;;;;;;;;8.70;99.90;;;;;;5038702;28;20356;-82
2023/12/28 03:16:46;;;;;;;;;;;8.90;99.90;;;;;;5064450;28;19924;-87
2023/12/28 03:19:12;;;;;;;;;;;;;;;;;;5068086;28;19943;-85
2023/12/28 03:21:38;;;;;;;;;;;;;;;;;;5050388;28;19966;-85
2023/12/28 03:24:04;;;;;;;;;;;;;;;;;;5053827;28;19920;-84
2023/12/28 03:26:30;;;;;;;;;;;;;;;;;;5057007;28;19931;-85
2023/12/28 03:28:56;;;;;;;;;;;;;;;;;;5044379;28;19963;-87
2023/12/28 03:31:23;;;;;;;;;;;;;;;;;;5085719;28;19931;-91
2023/12/28 03:33:49;;;;;;;;;;;;;;;;;;5057305;28;19935;-86
2023/12/28 03:36:18;;;;;;;;;;;9.30;99.90;;;;;;5065582;28;19926;-92
2023/12/28 03:38:44;;;;;;;;;;;9.20;99.90;;;;;;5038178;28;19924;-87
2023/12/28 03:41:19;;;;;;;;;;;9.30;99.90;;;;;;5055364;28;19920;-88
2023/12/28 03:43:45;;;;;;;;;;;9.30;99.90;;;;;;5088025;28;19924;-88
2023/12/28 03:46:11;;;;;;;;;;;9.20;99.90;;;;;;5070409;28;19928;-86
2023/12/28 03:48:37;;;;;;;;;;;9.20;99.90;;;;;;5049586;28;19920;-88
2023/12/28 03:51:04;;;;;;;;;;;9.30;99.90;;;;;;5054559;28;20136;-85
2023/12/28 03:53:33;;;;;;;;;;;9.30;99.90;;;;;;5040432;28;20639;-86
2023/12/28 03:55:59;;;;;;;;;;;9.30;99.90;;;;;;5047582;28;19947;-86
2023/12/28 03:58:25;;;;;;;;;;;9.30;99.90;;;;;;5045313;28;19947;-85
2023/12/28 04:00:50;;;;;;;;;;;9.30;99.90;;;;;;5055367;28;20438;-88
2023/12/28 04:03:16;;;;;;;;;;;9.30;99.90;;;;;;5065609;28;20250;-87
2023/12/28 04:05:45;;;;;;;;;;;9.30;99.90;;;;;;5068334;28;19976;-86
2023/12/28 04:08:10;;;;;;;;;;;9.30;99.90;;;;;;5056425;28;19973;-88
2023/12/28 04:10:39;;;;;;;;;;;9.30;99.90;;;;;;5061665;28;19932;-89
2023/12/28 04:13:04;;;;;;;;;;;9.40;99.90;;;;;;5042093;28;19971;-87
2023/12/28 04:15:30;;;;;;;;;;;9.30;99.90;;;;;;5051737;28;19970;-88
2023/12/28 04:17:56;;;;;;;;;;;9.30;99.90;;;;;;5041274;28;19928;-90
2023/12/28 04:20:22;;;;;;;;;;;9.40;99.90;;;;;;5041298;28;19924;-87
2023/12/28 04:22:47;;;;;;;;;;;9.50;99.90;;;;;;5065234;28;19920;-84
2023/12/28 04:25:13;;;;;;;;;;;9.40;99.90;;;;;;5034797;28;19939;-84
2023/12/28 04:27:39;;;;;;;;;;;9.50;99.90;;;;;;5050799;28;19999;-89
2023/12/28 04:30:05;;;;;;;;;;;9.50;99.90;;;;;;5031598;28;20010;-88
2023/12/28 04:32:31;;;;;;;;;;;9.50;99.90;;;;;;5057028;28;20089;-86
2023/12/28 04:34:57;;;;;;;;;;;9.50;99.90;;;;;;5054659;28;19942;-88
2023/12/28 04:37:23;;;;;;;;;;;9.50;99.90;;;;;;5051682;28;19920;-86
2023/12/28 04:39:49;;;;;;;;;;;9.50;99.90;;;;;;5052650;28;19936;-85
2023/12/28 04:42:14;;;;;;;;;;;9.50;99.90;;;;;;5055712;28;19925;-87
2023/12/28 04:44:40;;;;;;;;;;;9.50;99.90;;;;;;5055188;28;19967;-90
2023/12/28 04:47:06;;;;;;;;;;;9.50;99.90;;;;;;5071710;28;20011;-84
2023/12/28 04:49:31;;;;;;;;;;;9.50;99.90;;;;;;5067781;28;20400;-85
2023/12/28 04:51:57;;;;;;;;;;;9.50;99.90;;;;;;5089713;28;19934;-85
2023/12/28 04:54:23;;;;;;;;;;;9.40;99.90;;;;;;5039743;28;19978;-86
2023/12/28 04:56:49;;;;;;;;;;;9.60;99.90;;;;;;5030972;28;20011;-84
2023/12/28 04:59:14;;;;;;;;;;;9.50;99.90;;;;;;5036785;28;19981;-87
2023/12/28 05:01:43;;;;;;;;;;;9.60;99.90;;;;;;5057373;28;19920;-88
2023/12/28 05:04:09;;;;;;;;;;;9.60;99.90;;;;;;5054316;28;19947;-85
2023/12/28 05:06:34;;;;;;;;;;;9.60;99.90;;;;;;5055746;28;19924;-91
2023/12/28 05:09:01;;;;;;;;;;;9.70;99.90;;;;;;5070372;28;19935;-85
2023/12/28 05:11:26;;;;;;;;;;;9.70;99.90;;;;;;5071422;28;19928;-88
2023/12/28 05:13:52;;;;;;;;;;;9.70;99.90;;;;;;5063707;28;20007;-87
2023/12/28 05:16:18;;;;;;;;;;;9.60;99.90;;;;;;5063770;28;19971;-87
2023/12/28 05:18:43;;;;;;;;;;;9.80;99.90;;;;;;5055518;28;19928;-86
2023/12/28 05:21:09;;;;;;;;;;;9.80;99.90;;;;;;5038003;28;20270;-85
2023/12/28 05:23:34;;;;;;;;;;;9.80;99.90;;;;;;5041617;28;19921;-88
2023/12/28 05:26:00;;;;;;;;;;;9.70;99.90;;;;;;5072368;28;20264;-86
2023/12/28 05:28:26;;;;;;;;;;;9.70;99.90;;;;;;5074001;28;19928;-85
2023/12/28 05:30:51;;;;;;;;;;;9.60;99.90;;;;;;5041596;28;19999;-82
2023/12/28 05:33:17;;;;;;;;;;;9.70;99.90;;;;;;5051755;28;19920;-85
2023/12/28 05:35:42;;;;;;;;;;;9.70;99.90;;;;;;5038269;28;20324;-85
2023/12/28 05:38:08;;;;;;;;;;;9.60;99.90;;;;;;5035336;28;19931;-88
2023/12/28 05:40:33;;;;;;;;;;;9.70;99.90;;;;;;5063915;28;20337;-85
2023/12/28 05:42:59;;;;;;;;;;;9.70;99.90;;;;;;5052582;28;19921;-87
2023/12/28 05:45:25;;;;;;;;;;;9.60;99.90;;;;;;5062559;28;19943;-84
2023/12/28 05:47:50;;;;;;;;;;;9.70;99.90;;;;;;5052196;28;20001;-86
2023/12/28 05:50:16;;;;;;;;;;;9.70;99.90;;;;;;5039166;28;19977;-84
2023/12/28 05:52:41;;;;;;;;;;;9.70;99.90;;;;;;5054941;28;19927;-85
2023/12/28 05:55:07;;;;;;;;;;;9.70;99.90;;;;;;5043818;28;19935;-87
2023/12/28 05:57:33;;;;;;;;;;;9.70;99.90;;;;;;5058493;28;19931;-88
2023/12/28 05:59:59;;;;;;;;;;;9.70;99.90;;;;;;5063489;28;20341;-92
2023/12/28 06:02:24;;;;;;;;;;;9.70;99.90;;;;;;5052959;28;19920;-91
2023/12/28 06:04:50;;;;;;;;;;;9.80;99.90;;;;;;5072128;28;19920;-92
2023/12/28 06:07:15;;;;;;;;;;;9.80;99.90;;;;;;5060169;28;20380;-93
2023/12/28 06:09:41;;;;;;;;;;;9.70;99.90;;;;;;5037313;28;19982;-92
2023/12/28 06:12:07;;;;;;;;;;;9.70;99.90;;;;;;5040450;28;20002;-93
2023/12/28 06:14:33;;;;;;;;;;;9.70;99.90;;;;;;5054612;28;19978;-92
2023/12/28 06:16:58;;;;;;;;;;;9.70;99.90;;;;;;5076947;28;19928;-93
2023/12/28 06:19:24;;;;;;;;;;;9.70;99.90;;;;;;5084162;28;19931;-90
2023/12/28 06:21:49;;;;;;;;;;;9.60;99.90;;;;;;5057255;28;20007;-90
2023/12/28 06:24:15;;;;;;;;;;;9.70;99.90;;;;;;5081326;28;19924;-92
2023/12/28 06:26:44;;;;;;;;;;;9.70;99.90;;;;;;5062348;28;19935;-91
2023/12/28 06:29:10;;;;;;;;;;;9.80;99.90;;;;;;5059885;28;19921;-93
2023/12/28 06:31:36;;;;;;;;;;;9.70;99.90;;;;;;5078273;28;19928;-92
2023/12/28 06:34:02;;;;;;;;;;;9.80;99.90;;;;;;5080992;28;20011;-90
2023/12/28 06:36:28;;;;;;;;;;;9.80;99.90;;;;;;5044049;28;20338;-92
2023/12/28 06:38:53;;;;;;;;;;;9.80;99.90;;;;;;5039944;28;19924;-93
2023/12/28 06:41:19;;;;;;;;;;;9.80;99.90;;;;;;5076485;28;20347;-91
2023/12/28 06:43:45;;;;;;;;;;;9.80;99.90;;;;;;5044917;28;19921;-92
2023/12/28 06:46:11;;;;;;;;;;;9.80;99.90;;;;;;5035659;28;19939;-91
2023/12/28 06:48:40;;;;;;;;;;;9.80;99.90;;;;;;5058730;28;19967;-92
2023/12/28 06:51:09;;;;;;;;;;;9.80;99.90;;;;;;5072676;28;19935;-92
2023/12/28 06:53:34;;;;;;;;;;;9.80;99.90;;;;;;5061024;28;19935;-93
2023/12/28 06:56:00;;;;;;;;;;;9.80;99.90;;;;;;5058704;28;21073;-90
2023/12/28 06:58:26;;;;;;;;;;;9.90;99.90;;;;;;5062062;28;19935;-96
2023/12/28 07:00:51;;;;;;;;;;;9.80;99.90;;;;;;5067732;28;19947;-89
2023/12/28 07:03:17;;;;;;;;;;;9.90;99.90;;;;;;5044214;28;20506;-94
2023/12/28 07:05:43;;;;;;;;;;;9.80;99.90;;;;;;5078843;28;19920;-92
2023/12/28 07:08:08;;;;;;;;;;;9.90;99.90;;;;;;5061056;28;19949;-93
2023/12/28 07:10:34;;;;;;;;;;;9.90;99.90;;;;;;5074499;28;20440;-92
2023/12/28 07:13:00;;;;;;;;;;;9.80;99.90;;;;;;5066502;28;19967;-88
2023/12/28 07:15:25;;;;;;;;;;;10.00;99.90;;;;;;5043340;28;20381;-91
2023/12/28 07:17:51;;;;;;;;;;;9.90;99.90;;;;;;5043830;28;19931;-91
2023/12/28 07:20:17;;;;;;;;;;;9.90;99.90;;;;;;5042205;28;19920;-90
2023/12/28 07:22:42;;;;;;;;;;;9.90;99.90;;;;;;5041933;28;19959;-90
2023/12/28 07:25:08;;;;;;;;;;;9.90;99.90;;;;;;5074190;28;19920;-89
2023/12/28 07:27:34;;;;;;;;;;;10.00;99.90;;;;;;5038060;28;19919;-90
2023/12/28 07:30:00;;;;;;;;;;;10.00;99.90;;;;;;5053342;28;19963;-87
2023/12/28 07:32:25;;;;;;;;;;;10.00;99.90;;;;;;5058278;28;19971;-90
2023/12/28 07:34:52;;;;;;;;;;;9.90;99.90;;;;;;5037785;28;19936;-95
2023/12/28 07:37:18;;;;;;;;;;;9.90;99.90;;;;;;5060156;28;19938;-94
2023/12/28 07:39:44;;;;;;;;;;;9.90;99.90;;;;;;5054589;28;20011;-87
2023/12/28 07:42:09;;;;;;;;;;;9.80;99.90;;;;;;5043801;28;19924;-92
2023/12/28 07:44:35;;;;;;;;;;;9.80;99.90;;;;;;5081614;28;20524;-92
2023/12/28 07:47:01;;;;;;;;;;;9.80;99.90;;;;;;5074686;28;19987;-92
2023/12/28 07:49:27;;;;;;;;;;;9.90;99.90;;;;;;5076315;28;20253;-92
2023/12/28 07:51:53;;;;;;;;;;;9.80;99.90;;;;;;5072448;28;19924;-88
2023/12/28 07:54:18;;;;;;;;;;;9.80;99.90;;;;;;5041039;28;19931;-92
2023/12/28 07:56:44;;;;;;;;;;;9.80;99.90;;;;;;5072880;28;19945;-91
2023/12/28 07:59:09;;;;;;;;;;;9.80;99.90;;;;;;5045478;28;20011;-92
2023/12/28 08:01:35;;;;;;;;;;;9.90;99.90;;;;;;5067569;28;19946;-92
2023/12/28 08:04:01;;;;;;;;;;;9.90;99.90;;;;;;5065200;28;19920;-93
2023/12/28 08:06:29;;;;;;;;;;;9.90;99.90;;;;;;5049243;28;19920;-93
2023/12/28 08:08:54;;;;;;;;;;;9.90;99.90;;;;;;5043944;28;20346;-94
2023/12/28 08:11:20;;;;;;;;;;;9.90;99.90;;;;;;5042630;28;20017;-91
2023/12/28 08:13:46;;;;;;;;;;;10.00;99.90;;;;;;5063497;28;19928;-94
2023/12/28 08:16:12;;;;;;;;;;;9.90;99.90;;;;;;5055730;28;20260;-92
2023/12/28 08:18:38;;;;;;;;;;;10.00;99.90;;;;;;5054999;28;20015;-90
2023/12/28 08:21:03;;;;;;;;;;;10.10;99.90;;;;;;5057245;28;20318;-93
2023/12/28 08:23:29;;;;;;;;;;;10.10;99.90;;;;;;5046823;28;20011;-89
2023/12/28 08:25:54;;;;;;;;;;;10.10;99.90;;;;;;5072254;28;19923;-91
2023/12/28 08:28:20;;;;;;;;;;;10.10;99.90;;;;;;5040025;28;20018;-88
2023/12/28 08:30:46;;;;;;;;;;;10.20;99.90;;;;;;5059174;28;20315;-91
2023/12/28 08:33:11;;;;;;;;;;;10.20;99.90;;;;;;5035443;28;20288;-95
2023/12/28 08:35:37;;;;;;;;;;;10.20;99.90;;;;;;5072179;28;19924;-91
2023/12/28 08:38:03;;;;;;;;;;;10.20;99.90;;;;;;5035440;28;19943;-86
2023/12/28 08:40:28;;;;;;;;;;;10.20;99.90;;;;;;5038007;28;19966;-87
2023/12/28 08:42:54;;;;;;;;;;;10.20;99.90;;;;;;5053510;28;20220;-83
2023/12/28 08:45:19;;;;;;;;;;;10.20;99.90;;;;;;5053206;28;19920;-85
2023/12/28 08:47:45;;;;;;;;;;;10.30;99.90;;;;;;5056333;28;19924;-88
2023/12/28 08:50:11;;;;;;;;;;;10.30;99.90;;;;;;5065946;28;19928;-86
2023/12/28 08:52:36;;;;;;;;;;;10.20;99.90;;;;;;5027454;28;20307;-88
2023/12/28 08:55:02;;;;;;;;;;;10.20;99.90;;;;;;5014857;28;20369;-92
2023/12/28 08:57:28;;;;;;;;;;;10.30;99.90;;;;;;5026923;28;19921;-86
2023/12/28 08:59:54;;;;;;;;;;;10.30;99.90;;;;;;5044785;28;19920;-87
2023/12/28 09:02:19;;;;;;;;;;;10.30;99.90;;;;;;5038124;28;19989;-85
2023/12/28 09:04:45;;;;;;;;;;;10.30;99.90;;;;;;5026500;28;20011;-87
2023/12/28 09:07:11;;;;;;;;;;;10.30;99.90;;;;;;5047862;28;19929;-88
2023/12/28 09:09:36;;;;;;;;;;;10.30;99.90;;;;;;5018420;28;20442;-89
2023/12/28 09:12:02;;;;;;;;;;;10.40;99.90;;;;;;5056249;28;19998;-91
2023/12/28 09:14:28;;;;;;;;;;;10.40;99.90;;;;;;5025723;28;19928;-88
2023/12/28 09:16:53;;;;;;;;;;;10.40;99.90;;;;;;5073604;28;20522;-86
2023/12/28 09:19:19;;;;;;;;;;;10.40;99.90;;;;;;5048263;28;19928;-88
2023/12/28 09:21:44;;;;;;;;;;;10.40;99.90;;;;;;5043654;28;19951;-87
2023/12/28 09:24:10;;;;;;;;;;;10.40;99.90;;;;;;5033660;28;20247;-87
2023/12/28 09:26:36;;;;;;;;;;;10.50;99.90;;;;;;5036895;28;19979;-92
2023/12/28 09:29:01;;;;;;;;;;;10.50;99.90;;;;;;5015420;28;19999;-88
2023/12/28 09:31:27;;;;;;;;;;;10.50;99.90;;;;;;5026813;28;19931;-86
2023/12/28 09:33:53;;;;;;;;;;;10.60;99.90;;;;;;5027027;28;19935;-87
2023/12/28 09:36:18;;;;;;;;;;;10.60;99.90;;;;;;5053383;28;20508;-90
2023/12/28 09:38:45;;;;;;;;;;;;;;;;;;5035823;28;19924;-88
2023/12/28 09:41:14;;;;;;;;;;;10.60;99.90;;;;;;5045478;28;19928;-86
2023/12/28 09:43:43;;;;;;;;;;;10.60;99.90;;;;;;5068617;28;19931;-85
2023/12/28 09:46:11;;;;;;;;;;;;;;;;;;5041064;28;19921;-87
2023/12/28 09:48:38;;;;;;;;;;;10.60;99.90;;;;;;5053566;28;20428;-87
2023/12/28 09:51:04;;;;;;;;;;;10.00;99.90;;;;;;5042187;28;19925;-86
2023/12/28 09:53:30;;;;;;;;;;;10.80;99.90;;;;;;5023100;28;19951;-86
2023/12/28 09:55:56;;;;;;;;;;;10.80;99.90;;;;;;5038022;28;20281;-88
2023/12/28 09:58:22;;;;;;;;;;;10.50;99.90;;;;;;5038219;28;20065;-90
2023/12/28 10:00:49;;;;;;;;;;;10.30;99.90;;;;;;5038531;28;19982;-85
2023/12/28 10:03:15;;;;;;;;;;;10.60;99.90;;;;;;5073187;28;19926;-89
2023/12/28 10:05:42;;;;;;;;;;;10.50;99.90;;;;;;5058163;28;19990;-88
2023/12/28 10:08:07;;;;;;;;;;;10.60;99.90;;;;;;5055318;28;20456;-87
2023/12/28 10:10:33;;;;;;;;;;;10.90;99.90;;;;;;5039733;28;19982;-87
2023/12/28 10:12:59;;;;;;;;;;;10.40;99.90;;;;;;5021596;28;19981;-87
2023/12/28 10:15:25;;;;;;;;;;;10.50;99.90;;;;;;5038264;28;20299;-85
2023/12/28 10:17:54;;;;;;;;;;;10.30;99.90;;;;;;5038765;28;19924;-86
2023/12/28 10:20:19;;;;;;;;;;;11.50;99.90;;;;;;5037791;28;19935;-86
2023/12/28 10:22:45;;;;;;;;;;;9.40;99.90;;;;;;5070555;28;20272;-86
2023/12/28 10:25:11;;;;;;;;;;;10.60;99.90;;;;;;5052981;28;21340;-89
2023/12/28 10:27:42;;;;;;;;;;;11.50;99.90;;;;;;5067993;28;19928;-88
2023/12/28 10:30:08;;;;;;;;;;;10.60;99.90;;;;;;5026638;28;19970;-86
2023/12/28 10:32:34;;;;;;;;;;;10.90;99.90;;;;;;5042428;28;19986;-86
2023/12/28 10:35:00;;;;;;;;;;;10.50;99.90;;;;;;5038133;28;19925;-86
2023/12/28 10:37:26;;;;;;;;;;;10.60;99.90;;;;;;5034051;28;19988;-85
2023/12/28 10:39:53;;;;;;;;;;;10.50;99.90;;;;;;5048727;28;20241;-85
2023/12/28 10:42:30;;;;;;;;;;;10.60;99.90;;;;;;5046998;28;19935;-85
2023/12/28 10:45:01;;;;;;;;;;;10.70;99.90;;;;;;5038489;28;19928;-88
2023/12/28 10:47:27;;;;;;;;;;;10.70;99.90;;;;;;5060203;28;19924;-86
2023/12/28 10:49:55;;;;;;;;;;;10.60;99.90;;;;;;5023612;28;19927;-87
2023/12/28 10:52:20;;;;;;;;;;;10.50;99.90;;;;;;5042861;28;19925;-86
2023/12/28 10:55:13;;;;;;;;;;;10.60;99.90;;;;;;5050670;28;19993;-88
2023/12/28 10:57:59;;;;;;;;;;;10.60;99.90;;;;;;5017791;28;20015;-85
2023/12/28 11:00:25;;;;;;;;;;;10.60;99.90;;;;;;5044671;28;19921;-85
2023/12/28 11:02:56;;;;;;;;;;;10.60;99.90;;;;;;5020476;28;19925;-86
2023/12/28 11:05:22;;;;;;;;;;;10.60;99.90;;;;;;5025339;28;19920;-88
2023/12/28 11:07:49;;;;;;;;;;;10.60;99.90;;;;;;5041005;28;19927;-86
2023/12/28 11:10:16;;;;;;;;;;;10.60;99.90;;;;;;5028966;28;19921;-85
2023/12/28 11:12:42;;;;;;;;;;;10.60;99.90;;;;;;5050352;28;19925;-87
2023/12/28 11:15:09;;;;;;;;;;;10.60;99.90;;;;;;5078737;28;19925;-86
2023/12/28 11:17:36;;;;;;;;;;;10.60;99.90;;;;;;5015942;28;20269;-86
2023/12/28 11:20:02;;;;;;;;;;;10.60;99.90;;;;;;5029420;28;20041;-85
2023/12/28 11:22:29;;;;;;;;;;;10.60;99.90;;;;;;5049265;28;20027;-84
2023/12/28 11:24:56;;;;;;;;;;;10.60;99.90;;;;;;5048232;28;19975;-86
2023/12/28 11:27:21;;;;;;;;;;;10.80;99.90;;;;;;5045920;28;19978;-86
2023/12/28 11:29:48;;;;;;;;;;;10.60;99.90;;;;;;5036435;28;19924;-87
2023/12/28 11:32:14;;;;;;;;;;;10.60;99.90;;;;;;5067707;28;20051;-91
2023/12/28 11:34:41;;;;;;;;;;;;;;;;;;5030468;28;19932;-91
2023/12/28 11:37:09;;;;;;;;;;;10.70;99.90;;;;;;5034504;28;20034;-91
2023/12/28 11:39:36;;;;;;;;;;;10.70;99.90;;;;;;5036651;28;19968;-91
2023/12/28 11:42:03;;;;;;;;;;;10.70;99.90;;;;;;5017747;28;19925;-92
2023/12/28 11:44:41;;;;;;;;;;;10.80;99.90;;;;;;5065817;28;19920;-90
2023/12/28 11:47:11;;;;;;;;;;;10.80;99.90;;;;;;5033091;28;20010;-91
2023/12/28 11:49:40;;;;;;;;;;;10.80;99.90;;;;;;5031763;28;20425;-88
2023/12/28 11:52:06;;;;;;;;;;;10.80;99.90;;;;;;5018497;28;19940;-88
2023/12/28 11:54:32;;;;;;;;;;;10.80;99.90;;;;;;5019062;28;19924;-86
2023/12/28 11:56:58;;;;;;;;;;;10.70;99.90;;;;;;5016118;28;20085;-89
2023/12/28 11:59:23;;;;;;;;;;;10.70;99.90;;;;;;5012712;28;19990;-86
2023/12/28 12:01:52;;;;;;;;;;;10.70;99.90;;;;;;5020243;28;20402;-87
2023/12/28 12:04:21;;;;;;;;;;;10.70;99.90;;;;;;5030254;28;19927;-87
2023/12/28 12:06:47;;;;;;;;;;;10.60;99.90;;;;;;5018628;28;20391;-89
2023/12/28 12:09:13;;;;;;;;;;;10.60;99.90;;;;;;5027217;28;19920;-85
2023/12/28 12:11:39;;;;;;;;;;;10.70;99.90;;;;;;5023673;28;19921;-90
2023/12/28 12:14:09;;;;;;;;;;;10.70;99.90;;;;;;5031290;28;19928;-88
2023/12/28 12:16:38;;;;;;;;;;;10.60;99.90;;;;;;5046098;28;19936;-90
2023/12/28 12:19:06;;;;;;;;;;;10.60;99.90;;;;;;5035806;28;19936;-88
2023/12/28 12:21:44;;;;;;;;;;;10.60;99.90;;;;;;5043357;28;19920;-87
2023/12/28 12:24:09;;;;;;;;;;;10.50;99.90;;;;;;5031047;28;20266;-89
2023/12/28 12:26:36;;;;;;;;;;;10.50;99.90;;;;;;5025206;28;19928;-87
2023/12/28 12:29:01;;;;;;;;;;;10.60;99.90;;;;;;5034441;28;20259;-87
2023/12/28 12:31:27;;;;;;;;;;;10.50;99.90;;;;;;5034445;28;19921;-90
2023/12/28 12:33:53;;;;;;;;;;;10.50;99.90;;;;;;5053606;28;20351;-89
2023/12/28 12:36:19;;;;;;;;;;;10.50;99.90;;;;;;5052612;28;19921;-88
2023/12/28 12:38:44;;;;;;;;;;;10.50;99.90;;;;;;5030524;28;19928;-88
2023/12/28 12:41:11;;;;;;;;;;;10.40;99.90;;;;;;5017781;28;20339;-88
2023/12/28 12:43:37;;;;;;;;;;;10.50;99.90;;;;;;5043928;28;20023;-89
2023/12/28 12:46:06;;;;;;;;;;;10.50;99.90;;;;;;5027634;28;19999;-88
2023/12/28 12:48:31;;;;;;;;;;;10.50;99.90;;;;;;5035916;28;19929;-87
2023/12/28 12:50:57;;;;;;;;;;;10.50;99.90;;;;;;5051697;28;19925;-91
2023/12/28 12:53:23;;;;;;;;;;;10.50;99.90;;;;;;5054389;28;20504;-87
2023/12/28 12:55:54;;;;;;;;;;;10.50;99.90;;;;;;5066434;28;20265;-88
2023/12/28 12:58:20;;;;;;;;;;;10.50;99.90;;;;;;5049095;28;19920;-89
2023/12/28 13:00:46;;;;;;;;;;;10.50;99.90;;;;;;5037776;28;19928;-88
2023/12/28 13:03:12;;;;;;;;;;;10.60;99.90;;;;;;5037365;28;19931;-89
2023/12/28 13:05:38;;;;;;;;;;;10.60;99.90;;;;;;5052141;28;20345;-88
2023/12/28 13:08:04;;;;;;;;;;;10.60;99.90;;;;;;5037273;28;19931;-87
2023/12/28 13:10:30;;;;;;;;;;;10.60;99.90;;;;;;5071305;28;20356;-89
2023/12/28 13:12:56;;;;;;;;;;;10.60;99.90;;;;;;5068926;28;19928;-87
2023/12/28 13:15:21;;;;;;;;;;;10.60;99.90;;;;;;5055890;28;19924;-90
2023/12/28 13:17:47;;;;;;;;;;;10.60;99.90;;;;;;5052479;28;19932;-89
2023/12/28 13:20:13;;;;;;;;;;;10.60;99.90;;;;;;5053345;28;19920;-87
2023/12/28 13:22:38;;;;;;;;;;;10.60;99.90;;;;;;5055152;28;19924;-87
2023/12/28 13:25:04;;;;;;;;;;;10.60;99.90;;;;;;5068056;28;20061;-85
2023/12/28 13:27:31;;;;;;;;;;;10.50;99.90;;;;;;5034083;28;19920;-90
2023/12/28 13:29:56;;;;;;;;;;;10.50;99.90;;;;;;5072667;28;20263;-89
2023/12/28 13:32:23;;;;;;;;;;;10.50;99.90;;;;;;5044077;28;19919;-88
2023/12/28 13:34:50;;;;;;;;;;;10.50;99.90;;;;;;5052746;28;19978;-85
2023/12/28 13:37:16;;;;;;;;;;;10.50;99.90;;;;;;5055132;28;19981;-90
2023/12/28 13:39:42;;;;;;;;;;;10.50;99.90;;;;;;5055987;28;19931;-89
2023/12/28 13:42:07;;;;;;;;;;;10.50;99.90;;;;;;5034937;28;19920;-87
2023/12/28 13:44:33;;;;;;;;;;;10.50;99.90;;;;;;5051833;28;20391;-88
2023/12/28 13:46:59;;;;;;;;;;;10.50;99.90;;;;;;5049911;28;19985;-87
2023/12/28 13:49:25;;;;;;;;;;;10.50;99.90;;;;;;5050757;28;20011;-88
2023/12/28 13:51:51;;;;;;;;;;;10.40;99.90;;;;;;5045762;28;19928;-88
2023/12/28 13:54:19;;;;;;;;;;;10.50;99.90;;;;;;5032530;28;19935;-89
2023/12/28 13:56:45;;;;;;;;;;;10.50;99.90;;;;;;5034330;28;19989;-88
2023/12/28 13:59:11;;;;;;;;;;;10.50;99.90;;;;;;5020075;28;20370;-87
2023/12/28 14:01:37;;;;;;;;;;;10.40;99.90;;;;;;5052237;28;19930;-88
2023/12/28 14:04:03;;;;;;;;;;;10.40;99.90;;;;;;5008733;28;19927;-88
2023/12/28 14:06:29;;;;;;;;;;;10.40;99.90;;;;;;5039081;28;20003;-87
2023/12/28 14:08:54;;;;;;;;;;;10.30;99.90;;;;;;5017400;28;19976;-91
2023/12/28 14:11:20;;;;;;;;;;;10.30;99.90;;;;;;5023877;28;19928;-88
2023/12/28 14:13:46;;;;;;;;;;;10.30;99.90;;;;;;5012744;28;19928;-88
2023/12/28 14:16:11;;;;;;;;;;;10.30;99.90;;;;;;5021811;28;20342;-90
2023/12/28 14:18:41;;;;;;;;;;;10.30;99.90;;;;;;5038173;28;19931;-90
2023/12/28 14:21:08;;;;;;;;;;;10.30;99.90;;;;;;5023297;28;19921;-90
2023/12/28 14:23:34;;;;;;;;;;;9.70;99.90;;;;;;5027183;28;19924;-90